Pagina principale
METAR-TAF:

METAR-TAF

Aeroporti :

Aeroporto militare Cameri

Novara, Italia

latitudine: 45-31N, longitudine: 008-40E, altezza: 178 m

Osservazione

Il bollettino è stato emesso 1 ora e 11 minuti fa, alle 10:55 UTC
Temperature 14°C
Umidità 58%
Pressione 1022 hPa
Visibilità: 8000 m

METAR: LIMN 261055Z /////KT 8000 NSC 14/06 Q1022 RMK FEW FEW200 VIS MIN 8000 BLU

Ora: 14:06 (12:06 UTC)

Previsione

Il bollettino è stato emesso 1 ora e 6 minuti fa, alle 11:00 UTC
Previsione valida dal 26 alle 12 UTC al 26 alle 21 UTC
Vento 3 kt da direzioni variabili
Visibilità 10 km o più
nessuna nube inferiore a 1500 m e nessun cumulonembo
Evoluzione graduale
dal 26 alle 18 UTC al 26 alle 20 UTC
Visibilità: 6000 m

TAF: LIMN 261100Z 2612/2621 VRB03KT CAVOK BECMG 2618/2620 6000 NSC

Osservazioni e previsioni meteorologiche di più di 4000 aeroporti (messaggi METAR e TAF).

Le stazioni disponibili sono rappresentate dai dischi gialli e rossi sulla carta.

Puntare il mouse per vedere il nome della stazione.

Clicca sopra per visualizzare le osservazioni e previsioni meteorologiche.

Per cambiare la mappa : fare clic sui pulsanti verdi con una croce nera per ingrandire, il pulsante verde con un trattino per diminuire, o sulla freccia verde per le mappe adiacenti.


METAR-TAF: